sensor_id;sensor_type;location;lat;lon;timestamp;pressure;altitude;pressure_sealevel;temperature;humidity
20019;BME280;10170;42.502;26.526;2023-02-21T00:00:32;99986.84;;;6.27;100.00
20019;BME280;10170;42.502;26.526;2023-02-21T00:03:18;99989.81;;;6.32;100.00
20019;BME280;10170;42.502;26.526;2023-02-21T00:06:06;99980.97;;;6.09;100.00
20019;BME280;10170;42.502;26.526;2023-02-21T00:08:57;99981.16;;;6.00;100.00
20019;BME280;10170;42.502;26.526;2023-02-21T00:11:43;99973.28;;;5.84;100.00
20019;BME280;10170;42.502;26.526;2023-02-21T00:14:28;99957.09;;;5.79;100.00
20019;BME280;10170;42.502;26.526;2023-02-21T00:17:14;99963.94;;;6.20;100.00
20019;BME280;10170;42.502;26.526;2023-02-21T00:19:59;99961.44;;;6.34;100.00
20019;BME280;10170;42.502;26.526;2023-02-21T00:22:45;99964.75;;;6.28;100.00
20019;BME280;10170;42.502;26.526;2023-02-21T00:25:30;99953.88;;;6.15;100.00
20019;BME280;10170;42.502;26.526;2023-02-21T00:28:16;99945.34;;;5.97;100.00
20019;BME280;10170;42.502;26.526;2023-02-21T00:31:01;99942.09;;;5.63;100.00
20019;BME280;10170;42.502;26.526;2023-02-21T00:33:47;99914.06;;;5.54;100.00
20019;BME280;10170;42.502;26.526;2023-02-21T00:36:32;99902.22;;;5.66;100.00
20019;BME280;10170;42.502;26.526;2023-02-21T00:39:17;99888.84;;;5.68;100.00
20019;BME280;10170;42.502;26.526;2023-02-21T00:42:03;99916.69;;;5.86;100.00
20019;BME280;10170;42.502;26.526;2023-02-21T00:44:48;99919.31;;;5.70;100.00
20019;BME280;10170;42.502;26.526;2023-02-21T00:47:34;99908.66;;;5.48;100.00
20019;BME280;10170;42.502;26.526;2023-02-21T00:50:19;99916.72;;;5.54;100.00
20019;BME280;10170;42.502;26.526;2023-02-21T00:53:04;99921.22;;;5.38;100.00
20019;BME280;10170;42.502;26.526;2023-02-21T00:55:49;99911.81;;;5.35;100.00
20019;BME280;10170;42.502;26.526;2023-02-21T00:58:35;99900.13;;;5.38;100.00
20019;BME280;10170;42.502;26.526;2023-02-21T01:01:20;99890.03;;;5.49;100.00
20019;BME280;10170;42.502;26.526;2023-02-21T01:04:06;99894.84;;;5.38;100.00
20019;BME280;10170;42.502;26.526;2023-02-21T01:06:51;99887.75;;;5.30;100.00
20019;BME280;10170;42.502;26.526;2023-02-21T01:09:37;99881.19;;;5.34;100.00
20019;BME280;10170;42.502;26.526;2023-02-21T01:12:22;99862.69;;;5.42;100.00
20019;BME280;10170;42.502;26.526;2023-02-21T01:15:07;99876.50;;;5.68;100.00
20019;BME280;10170;42.502;26.526;2023-02-21T01:17:53;99874.47;;;5.86;100.00
20019;BME280;10170;42.502;26.526;2023-02-21T01:20:38;99868.31;;;6.02;100.00
20019;BME280;10170;42.502;26.526;2023-02-21T01:23:23;99878.03;;;6.09;100.00
20019;BME280;10170;42.502;26.526;2023-02-21T01:26:09;99886.25;;;6.14;100.00
20019;BME280;10170;42.502;26.526;2023-02-21T01:28:54;99870.78;;;6.03;100.00
20019;BME280;10170;42.502;26.526;2023-02-21T01:31:40;99857.47;;;5.89;100.00
20019;BME280;10170;42.502;26.526;2023-02-21T01:34:25;99847.22;;;6.02;100.00
20019;BME280;10170;42.502;26.526;2023-02-21T01:37:11;99847.34;;;6.08;100.00
20019;BME280;10170;42.502;26.526;2023-02-21T01:39:56;99845.44;;;5.86;100.00
20019;BME280;10170;42.502;26.526;2023-02-21T01:42:41;99841.31;;;5.92;100.00
20019;BME280;10170;42.502;26.526;2023-02-21T01:45:39;99846.00;;;6.12;100.00
20019;BME280;10170;42.502;26.526;2023-02-21T01:48:26;99846.38;;;6.01;100.00
20019;BME280;10170;42.502;26.526;2023-02-21T01:51:15;99856.00;;;5.86;100.00
20019;BME280;10170;42.502;26.526;2023-02-21T01:54:03;99830.78;;;5.76;100.00
20019;BME280;10170;42.502;26.526;2023-02-21T01:56:49;99835.03;;;5.93;100.00
20019;BME280;10170;42.502;26.526;2023-02-21T01:59:34;99834.91;;;5.78;100.00
20019;BME280;10170;42.502;26.526;2023-02-21T02:02:21;99834.22;;;5.92;100.00
20019;BME280;10170;42.502;26.526;2023-02-21T02:05:10;99824.75;;;6.06;100.00
20019;BME280;10170;42.502;26.526;2023-02-21T02:07:55;99816.03;;;6.05;100.00
20019;BME280;10170;42.502;26.526;2023-02-21T02:10:41;99823.69;;;6.15;100.00
20019;BME280;10170;42.502;26.526;2023-02-21T02:13:47;99820.56;;;6.19;100.00
20019;BME280;10170;42.502;26.526;2023-02-21T02:17:22;99828.97;;;6.46;100.00
20019;BME280;10170;42.502;26.526;2023-02-21T02:22:53;99812.59;;;6.73;100.00
20019;BME280;10170;42.502;26.526;2023-02-21T02:36:57;99814.03;;;6.61;100.00
20019;BME280;10170;42.502;26.526;2023-02-21T02:39:31;99803.97;;;6.56;100.00
20019;BME280;10170;42.502;26.526;2023-02-21T02:44:56;99783.94;;;6.62;100.00
20019;BME280;10170;42.502;26.526;2023-02-21T02:47:33;99788.06;;;6.64;100.00
20019;BME280;10170;42.502;26.526;2023-02-21T02:50:04;99770.69;;;6.70;100.00
20019;BME280;10170;42.502;26.526;2023-02-21T02:52:33;99791.41;;;6.81;100.00
20019;BME280;10170;42.502;26.526;2023-02-21T02:55:18;99789.28;;;6.76;100.00
20019;BME280;10170;42.502;26.526;2023-02-21T02:57:46;99793.31;;;6.87;100.00
20019;BME280;10170;42.502;26.526;2023-02-21T03:00:14;99782.22;;;6.91;100.00
20019;BME280;10170;42.502;26.526;2023-02-21T03:05:37;99782.75;;;6.87;100.00
20019;BME280;10170;42.502;26.526;2023-02-21T03:08:39;99772.31;;;6.93;100.00
20019;BME280;10170;42.502;26.526;2023-02-21T03:11:17;99778.75;;;6.91;100.00
20019;BME280;10170;42.502;26.526;2023-02-21T03:14:00;99772.03;;;6.88;100.00
20019;BME280;10170;42.502;26.526;2023-02-21T03:16:53;99785.19;;;6.74;100.00
20019;BME280;10170;42.502;26.526;2023-02-21T03:19:30;99791.66;;;6.71;100.00
20019;BME280;10170;42.502;26.526;2023-02-21T03:22:00;99801.50;;;6.55;100.00
20019;BME280;10170;42.502;26.526;2023-02-21T03:24:28;99802.75;;;6.44;100.00
20019;BME280;10170;42.502;26.526;2023-02-21T03:26:58;99789.06;;;6.40;100.00
20019;BME280;10170;42.502;26.526;2023-02-21T03:29:55;99802.88;;;6.51;100.00
20019;BME280;10170;42.502;26.526;2023-02-21T03:32:33;99792.06;;;6.60;100.00
20019;BME280;10170;42.502;26.526;2023-02-21T03:35:01;99804.78;;;6.57;100.00
20019;BME280;10170;42.502;26.526;2023-02-21T03:37:34;99822.00;;;6.53;100.00
20019;BME280;10170;42.502;26.526;2023-02-21T03:40:04;99822.88;;;6.45;100.00
20019;BME280;10170;42.502;26.526;2023-02-21T03:42:31;99829.69;;;6.39;100.00
20019;BME280;10170;42.502;26.526;2023-02-21T03:44:58;99839.59;;;6.37;100.00
20019;BME280;10170;42.502;26.526;2023-02-21T03:47:25;99849.69;;;6.57;100.00
20019;BME280;10170;42.502;26.526;2023-02-21T03:49:51;99854.69;;;6.52;100.00
20019;BME280;10170;42.502;26.526;2023-02-21T03:52:18;99852.59;;;6.47;100.00
20019;BME280;10170;42.502;26.526;2023-02-21T03:54:45;99851.22;;;6.51;100.00
20019;BME280;10170;42.502;26.526;2023-02-21T03:57:12;99860.75;;;6.60;100.00
20019;BME280;10170;42.502;26.526;2023-02-21T03:59:38;99846.19;;;6.64;100.00
20019;BME280;10170;42.502;26.526;2023-02-21T04:02:05;99848.34;;;6.83;100.00
20019;BME280;10170;42.502;26.526;2023-02-21T04:04:32;99852.53;;;7.00;100.00
20019;BME280;10170;42.502;26.526;2023-02-21T04:06:59;99838.13;;;7.03;100.00
20019;BME280;10170;42.502;26.526;2023-02-21T04:09:25;99833.41;;;7.13;100.00
20019;BME280;10170;42.502;26.526;2023-02-21T04:11:52;99843.09;;;7.20;100.00
20019;BME280;10170;42.502;26.526;2023-02-21T04:14:19;99837.34;;;7.17;100.00
20019;BME280;10170;42.502;26.526;2023-02-21T04:16:46;99832.69;;;7.19;100.00
20019;BME280;10170;42.502;26.526;2023-02-21T04:19:13;99808.84;;;6.90;100.00
20019;BME280;10170;42.502;26.526;2023-02-21T04:21:40;99819.47;;;7.04;100.00
20019;BME280;10170;42.502;26.526;2023-02-21T04:24:07;99824.13;;;7.17;100.00
20019;BME280;10170;42.502;26.526;2023-02-21T04:26:33;99816.44;;;7.07;100.00
20019;BME280;10170;42.502;26.526;2023-02-21T04:29:01;99802.53;;;6.91;100.00
20019;BME280;10170;42.502;26.526;2023-02-21T04:31:28;99762.53;;;6.57;100.00
20019;BME280;10170;42.502;26.526;2023-02-21T04:33:55;99807.13;;;6.74;100.00
20019;BME280;10170;42.502;26.526;2023-02-21T04:36:36;99796.56;;;6.74;100.00
20019;BME280;10170;42.502;26.526;2023-02-21T04:39:07;99811.63;;;6.74;100.00
20019;BME280;10170;42.502;26.526;2023-02-21T04:41:34;99800.31;;;6.80;100.00
20019;BME280;10170;42.502;26.526;2023-02-21T04:44:01;99801.25;;;6.87;100.00
20019;BME280;10170;42.502;26.526;2023-02-21T04:46:27;99803.78;;;6.80;100.00
20019;BME280;10170;42.502;26.526;2023-02-21T04:48:54;99813.16;;;6.68;100.00
20019;BME280;10170;42.502;26.526;2023-02-21T04:51:23;99828.47;;;6.73;100.00
20019;BME280;10170;42.502;26.526;2023-02-21T04:53:52;99807.16;;;6.52;100.00
20019;BME280;10170;42.502;26.526;2023-02-21T04:56:22;99805.25;;;6.60;100.00
20019;BME280;10170;42.502;26.526;2023-02-21T04:58:50;99819.03;;;6.56;100.00
20019;BME280;10170;42.502;26.526;2023-02-21T05:01:18;99802.91;;;6.65;100.00
20019;BME280;10170;42.502;26.526;2023-02-21T05:03:46;99807.19;;;6.89;100.00
20019;BME280;10170;42.502;26.526;2023-02-21T05:06:18;99798.91;;;6.92;100.00
20019;BME280;10170;42.502;26.526;2023-02-21T05:08:45;99808.19;;;6.88;100.00
20019;BME280;10170;42.502;26.526;2023-02-21T05:11:12;99811.94;;;6.93;100.00
20019;BME280;10170;42.502;26.526;2023-02-21T05:13:39;99817.38;;;6.77;100.00
20019;BME280;10170;42.502;26.526;2023-02-21T05:16:06;99811.53;;;6.82;100.00
20019;BME280;10170;42.502;26.526;2023-02-21T05:18:33;99815.94;;;6.89;100.00
20019;BME280;10170;42.502;26.526;2023-02-21T05:21:00;99783.75;;;6.86;100.00
20019;BME280;10170;42.502;26.526;2023-02-21T05:23:28;99805.59;;;6.80;100.00
20019;BME280;10170;42.502;26.526;2023-02-21T05:26:04;99802.41;;;6.70;100.00
20019;BME280;10170;42.502;26.526;2023-02-21T05:28:31;99805.56;;;6.65;100.00
20019;BME280;10170;42.502;26.526;2023-02-21T05:30:58;99803.00;;;6.57;100.00
20019;BME280;10170;42.502;26.526;2023-02-21T05:33:27;99795.66;;;6.45;100.00
20019;BME280;10170;42.502;26.526;2023-02-21T05:35:54;99791.78;;;6.32;100.00
20019;BME280;10170;42.502;26.526;2023-02-21T05:38:22;99799.97;;;6.60;100.00
20019;BME280;10170;42.502;26.526;2023-02-21T05:40:50;99794.38;;;6.78;100.00
20019;BME280;10170;42.502;26.526;2023-02-21T05:43:18;99787.00;;;6.73;100.00
20019;BME280;10170;42.502;26.526;2023-02-21T05:45:45;99784.56;;;6.72;100.00
20019;BME280;10170;42.502;26.526;2023-02-21T05:48:11;99785.06;;;6.90;100.00
20019;BME280;10170;42.502;26.526;2023-02-21T05:50:38;99780.31;;;7.00;100.00
20019;BME280;10170;42.502;26.526;2023-02-21T05:53:06;99786.94;;;7.18;100.00
20019;BME280;10170;42.502;26.526;2023-02-21T05:55:35;99792.94;;;7.27;100.00
20019;BME280;10170;42.502;26.526;2023-02-21T05:58:02;99798.97;;;7.50;100.00
20019;BME280;10170;42.502;26.526;2023-02-21T06:00:29;99789.03;;;7.52;100.00
20019;BME280;10170;42.502;26.526;2023-02-21T06:02:56;99790.84;;;7.66;100.00
20019;BME280;10170;42.502;26.526;2023-02-21T06:05:23;99800.13;;;7.91;100.00
20019;BME280;10170;42.502;26.526;2023-02-21T06:07:50;99792.91;;;8.00;100.00
20019;BME280;10170;42.502;26.526;2023-02-21T06:10:18;99792.97;;;8.21;100.00
20019;BME280;10170;42.502;26.526;2023-02-21T06:12:45;99794.78;;;8.35;98.99
20019;BME280;10170;42.502;26.526;2023-02-21T06:15:12;99794.66;;;8.43;97.38
20019;BME280;10170;42.502;26.526;2023-02-21T06:17:40;99792.72;;;8.73;94.92
20019;BME280;10170;42.502;26.526;2023-02-21T06:20:10;99788.72;;;8.83;92.27
20019;BME280;10170;42.502;26.526;2023-02-21T06:22:37;99798.56;;;8.68;91.86
20019;BME280;10170;42.502;26.526;2023-02-21T06:25:04;99803.06;;;8.89;92.09
20019;BME280;10170;42.502;26.526;2023-02-21T06:27:31;99794.34;;;9.22;89.95
20019;BME280;10170;42.502;26.526;2023-02-21T06:29:58;99800.06;;;9.26;87.98
20019;BME280;10170;42.502;26.526;2023-02-21T06:32:25;99793.50;;;9.49;86.35
20019;BME280;10170;42.502;26.526;2023-02-21T06:34:53;99800.75;;;9.75;84.98
20019;BME280;10170;42.502;26.526;2023-02-21T06:37:19;99791.78;;;10.17;82.61
20019;BME280;10170;42.502;26.526;2023-02-21T06:39:46;99785.06;;;10.27;81.16
20019;BME280;10170;42.502;26.526;2023-02-21T06:42:14;99794.06;;;10.20;81.06
20019;BME280;10170;42.502;26.526;2023-02-21T06:44:45;99786.72;;;10.35;80.04
20019;BME280;10170;42.502;26.526;2023-02-21T06:47:13;99788.25;;;10.77;77.66
20019;BME280;10170;42.502;26.526;2023-02-21T06:49:40;99785.16;;;10.80;77.74
20019;BME280;10170;42.502;26.526;2023-02-21T06:52:07;99782.72;;;10.72;77.38
20019;BME280;10170;42.502;26.526;2023-02-21T06:54:34;99763.06;;;10.73;77.18
20019;BME280;10170;42.502;26.526;2023-02-21T06:57:01;99770.41;;;10.51;77.29
20019;BME280;10170;42.502;26.526;2023-02-21T06:59:28;99769.19;;;10.60;76.45
20019;BME280;10170;42.502;26.526;2023-02-21T07:01:55;99763.66;;;10.61;76.01
20019;BME280;10170;42.502;26.526;2023-02-21T07:04:23;99774.13;;;10.70;75.99
20019;BME280;10170;42.502;26.526;2023-02-21T07:06:50;99761.84;;;10.69;76.02
20019;BME280;10170;42.502;26.526;2023-02-21T07:09:17;99773.91;;;10.71;75.80
20019;BME280;10170;42.502;26.526;2023-02-21T07:11:44;99768.41;;;11.05;74.71
20019;BME280;10170;42.502;26.526;2023-02-21T07:14:12;99764.50;;;10.95;73.80
20019;BME280;10170;42.502;26.526;2023-02-21T07:16:40;99757.75;;;11.18;73.50
20019;BME280;10170;42.502;26.526;2023-02-21T07:19:06;99761.75;;;11.53;72.34
20019;BME280;10170;42.502;26.526;2023-02-21T07:21:33;99764.03;;;11.50;72.06
20019;BME280;10170;42.502;26.526;2023-02-21T07:24:00;99760.72;;;11.74;71.32
20019;BME280;10170;42.502;26.526;2023-02-21T07:26:27;99768.03;;;11.85;70.90
20019;BME280;10170;42.502;26.526;2023-02-21T07:28:53;99756.00;;;11.63;71.54
20019;BME280;10170;42.502;26.526;2023-02-21T07:31:20;99761.38;;;11.50;72.07
20019;BME280;10170;42.502;26.526;2023-02-21T07:33:47;99753.38;;;11.50;71.49
20019;BME280;10170;42.502;26.526;2023-02-21T07:36:14;99761.00;;;11.40;71.66
20019;BME280;10170;42.502;26.526;2023-02-21T07:38:41;99756.03;;;11.50;72.19
20019;BME280;10170;42.502;26.526;2023-02-21T07:41:08;99759.09;;;11.53;72.07
20019;BME280;10170;42.502;26.526;2023-02-21T07:43:35;99752.56;;;11.43;72.58
20019;BME280;10170;42.502;26.526;2023-02-21T07:46:01;99748.25;;;11.42;72.83
20019;BME280;10170;42.502;26.526;2023-02-21T07:48:28;99751.78;;;11.36;72.45
20019;BME280;10170;42.502;26.526;2023-02-21T07:50:55;99734.38;;;11.40;72.05
20019;BME280;10170;42.502;26.526;2023-02-21T07:53:21;99736.56;;;11.56;71.18
20019;BME280;10170;42.502;26.526;2023-02-21T07:55:48;99735.09;;;11.60;71.11
20019;BME280;10170;42.502;26.526;2023-02-21T07:58:15;99733.47;;;11.65;71.05
20019;BME280;10170;42.502;26.526;2023-02-21T08:00:42;99733.03;;;11.62;71.10
20019;BME280;10170;42.502;26.526;2023-02-21T08:03:12;99738.97;;;11.71;71.03
20019;BME280;10170;42.502;26.526;2023-02-21T08:05:39;99721.38;;;11.70;70.79
20019;BME280;10170;42.502;26.526;2023-02-21T08:08:07;99711.47;;;11.83;70.20
20019;BME280;10170;42.502;26.526;2023-02-21T08:10:35;99720.63;;;12.00;70.88
20019;BME280;10170;42.502;26.526;2023-02-21T08:13:03;99720.56;;;12.44;69.55
20019;BME280;10170;42.502;26.526;2023-02-21T08:15:30;99720.72;;;12.49;68.97
20019;BME280;10170;42.502;26.526;2023-02-21T08:17:58;99721.59;;;12.68;68.73
20019;BME280;10170;42.502;26.526;2023-02-21T08:20:25;99699.66;;;12.66;67.17
20019;BME280;10170;42.502;26.526;2023-02-21T08:22:51;99716.44;;;13.40;66.15
20019;BME280;10170;42.502;26.526;2023-02-21T08:25:18;99716.19;;;13.96;64.21
20019;BME280;10170;42.502;26.526;2023-02-21T08:27:45;99701.03;;;14.49;62.13
20019;BME280;10170;42.502;26.526;2023-02-21T08:30:15;99713.47;;;14.44;60.76
20019;BME280;10170;42.502;26.526;2023-02-21T08:32:42;99720.00;;;14.59;59.75
20019;BME280;10170;42.502;26.526;2023-02-21T08:35:14;99712.84;;;14.71;58.97
20019;BME280;10170;42.502;26.526;2023-02-21T08:37:49;99720.88;;;14.71;58.72
20019;BME280;10170;42.502;26.526;2023-02-21T08:40:19;99669.63;;;14.15;58.38
20019;BME280;10170;42.502;26.526;2023-02-21T08:42:50;99720.56;;;14.20;59.01
20019;BME280;10170;42.502;26.526;2023-02-21T08:45:19;99710.88;;;14.08;59.02
20019;BME280;10170;42.502;26.526;2023-02-21T08:47:46;99714.84;;;14.17;59.36
20019;BME280;10170;42.502;26.526;2023-02-21T08:50:13;99718.34;;;14.35;59.12
20019;BME280;10170;42.502;26.526;2023-02-21T08:52:40;99679.63;;;14.49;59.27
20019;BME280;10170;42.502;26.526;2023-02-21T08:55:07;99706.69;;;14.30;58.96
20019;BME280;10170;42.502;26.526;2023-02-21T08:57:33;99695.53;;;14.33;59.20
20019;BME280;10170;42.502;26.526;2023-02-21T09:00:00;99689.44;;;14.67;58.77
20019;BME280;10170;42.502;26.526;2023-02-21T09:02:27;99698.19;;;14.86;57.85
20019;BME280;10170;42.502;26.526;2023-02-21T09:04:54;99695.94;;;14.59;58.03
20019;BME280;10170;42.502;26.526;2023-02-21T09:07:21;99696.88;;;15.11;57.43
20019;BME280;10170;42.502;26.526;2023-02-21T09:09:48;99688.03;;;15.34;56.40
20019;BME280;10170;42.502;26.526;2023-02-21T09:12:15;99677.91;;;15.24;56.08
20019;BME280;10170;42.502;26.526;2023-02-21T09:14:42;99687.47;;;15.43;55.62
20019;BME280;10170;42.502;26.526;2023-02-21T09:17:11;99685.25;;;15.80;54.47
20019;BME280;10170;42.502;26.526;2023-02-21T09:19:39;99676.59;;;15.50;55.31
20019;BME280;10170;42.502;26.526;2023-02-21T09:22:07;99669.06;;;15.75;54.75
20019;BME280;10170;42.502;26.526;2023-02-21T09:24:34;99671.75;;;16.03;54.46
20019;BME280;10170;42.502;26.526;2023-02-21T09:27:01;99660.19;;;16.03;54.43
20019;BME280;10170;42.502;26.526;2023-02-21T09:29:30;99658.88;;;15.60;54.51
20019;BME280;10170;42.502;26.526;2023-02-21T09:32:11;99653.72;;;16.15;53.86
20019;BME280;10170;42.502;26.526;2023-02-21T09:34:38;99644.19;;;16.69;53.39
20019;BME280;10170;42.502;26.526;2023-02-21T09:37:05;99654.38;;;16.50;53.16
20019;BME280;10170;42.502;26.526;2023-02-21T09:39:32;99649.47;;;16.64;52.86
20019;BME280;10170;42.502;26.526;2023-02-21T09:41:59;99644.09;;;16.80;51.93
20019;BME280;10170;42.502;26.526;2023-02-21T09:44:27;99645.72;;;16.81;52.48
20019;BME280;10170;42.502;26.526;2023-02-21T09:47:00;99632.94;;;17.27;51.66
20019;BME280;10170;42.502;26.526;2023-02-21T09:49:48;99634.63;;;16.95;51.63
20019;BME280;10170;42.502;26.526;2023-02-21T09:52:34;99620.41;;;17.16;51.98
20019;BME280;10170;42.502;26.526;2023-02-21T09:55:27;99622.41;;;17.04;51.05
20019;BME280;10170;42.502;26.526;2023-02-21T09:57:56;99615.97;;;16.66;52.31
20019;BME280;10170;42.502;26.526;2023-02-21T10:00:28;99602.94;;;16.25;53.42
20019;BME280;10170;42.502;26.526;2023-02-21T10:03:43;99606.81;;;16.01;54.41
20019;BME280;10170;42.502;26.526;2023-02-21T10:07:25;99593.03;;;16.26;54.00
20019;BME280;10170;42.502;26.526;2023-02-21T10:09:56;99573.84;;;16.67;53.68
20019;BME280;10170;42.502;26.526;2023-02-21T10:15:33;99567.06;;;17.24;52.01
20019;BME280;10170;42.502;26.526;2023-02-21T10:23:21;99536.53;;;18.15;49.97
20019;BME280;10170;42.502;26.526;2023-02-21T10:25:54;99528.38;;;18.78;48.36
20019;BME280;10170;42.502;26.526;2023-02-21T10:28:25;99528.56;;;18.72;48.66
20019;BME280;10170;42.502;26.526;2023-02-21T10:30:56;99521.78;;;18.64;49.14
20019;BME280;10170;42.502;26.526;2023-02-21T10:33:23;99513.63;;;19.01;49.04
20019;BME280;10170;42.502;26.526;2023-02-21T10:35:50;99508.53;;;19.10;48.29
20019;BME280;10170;42.502;26.526;2023-02-21T10:38:24;99501.84;;;19.22;48.07
20019;BME280;10170;42.502;26.526;2023-02-21T10:40:58;99493.88;;;19.67;47.55
20019;BME280;10170;42.502;26.526;2023-02-21T10:43:31;99494.16;;;19.71;47.85
20019;BME280;10170;42.502;26.526;2023-02-21T10:46:26;99483.91;;;19.98;47.33
20019;BME280;10170;42.502;26.526;2023-02-21T10:49:03;99482.53;;;20.41;45.50
20019;BME280;10170;42.502;26.526;2023-02-21T10:51:38;99476.31;;;20.40;44.09
20019;BME280;10170;42.502;26.526;2023-02-21T10:56:48;99458.72;;;20.58;42.73
20019;BME280;10170;42.502;26.526;2023-02-21T10:59:24;99435.72;;;20.60;42.56
20019;BME280;10170;42.502;26.526;2023-02-21T11:01:53;99447.22;;;20.91;41.81
20019;BME280;10170;42.502;26.526;2023-02-21T11:04:22;99431.88;;;21.69;40.36
20019;BME280;10170;42.502;26.526;2023-02-21T11:09:34;99431.53;;;21.42;40.09
20019;BME280;10170;42.502;26.526;2023-02-21T11:12:26;99433.66;;;21.06;39.97
20019;BME280;10170;42.502;26.526;2023-02-21T11:17:26;99420.19;;;21.40;40.16
20019;BME280;10170;42.502;26.526;2023-02-21T11:19:56;99413.41;;;21.71;40.12
20019;BME280;10170;42.502;26.526;2023-02-21T11:28:02;99401.31;;;21.30;39.93
20019;BME280;10170;42.502;26.526;2023-02-21T11:30:34;99416.50;;;21.21;39.11
20019;BME280;10170;42.502;26.526;2023-02-21T11:33:03;99410.59;;;21.14;37.44
20019;BME280;10170;42.502;26.526;2023-02-21T11:35:43;99402.19;;;21.20;35.58
20019;BME280;10170;42.502;26.526;2023-02-21T11:38:36;99398.66;;;22.16;36.62
20019;BME280;10170;42.502;26.526;2023-02-21T11:41:16;99398.13;;;22.42;37.72
20019;BME280;10170;42.502;26.526;2023-02-21T11:43:51;99392.13;;;22.69;37.45
20019;BME280;10170;42.502;26.526;2023-02-21T11:54:13;99374.78;;;23.76;32.00
20019;BME280;10170;42.502;26.526;2023-02-21T11:56:48;99374.44;;;24.10;31.31
20019;BME280;10170;42.502;26.526;2023-02-21T11:59:45;99367.25;;;23.55;31.97
20019;BME280;10170;42.502;26.526;2023-02-21T12:22:10;99331.47;;;23.53;31.32
20019;BME280;10170;42.502;26.526;2023-02-21T12:27:51;99337.06;;;23.75;31.04
20019;BME280;10170;42.502;26.526;2023-02-21T12:46:38;99321.56;;;23.89;30.43
20019;BME280;10170;42.502;26.526;2023-02-21T12:49:28;99317.47;;;24.32;30.25
20019;BME280;10170;42.502;26.526;2023-02-21T12:52:06;99310.88;;;24.74;30.02
20019;BME280;10170;42.502;26.526;2023-02-21T12:57:44;99325.00;;;24.49;30.13
20019;BME280;10170;42.502;26.526;2023-02-21T13:00:14;99321.63;;;24.16;29.87
20019;BME280;10170;42.502;26.526;2023-02-21T13:05:40;99305.72;;;24.23;29.64
20019;BME280;10170;42.502;26.526;2023-02-21T13:08:22;99311.13;;;24.37;29.53
20019;BME280;10170;42.502;26.526;2023-02-21T13:11:09;99315.13;;;24.66;29.02
20019;BME280;10170;42.502;26.526;2023-02-21T13:13:39;99312.75;;;24.11;29.79
20019;BME280;10170;42.502;26.526;2023-02-21T13:16:08;99305.56;;;23.74;29.74
20019;BME280;10170;42.502;26.526;2023-02-21T13:21:30;99301.47;;;24.93;28.90
20019;BME280;10170;42.502;26.526;2023-02-21T13:27:15;99314.75;;;24.46;29.34
20019;BME280;10170;42.502;26.526;2023-02-21T13:29:46;99295.97;;;24.58;29.24
20019;BME280;10170;42.502;26.526;2023-02-21T13:32:18;99289.09;;;24.25;29.79
20019;BME280;10170;42.502;26.526;2023-02-21T13:34:58;99312.41;;;23.98;29.79
20019;BME280;10170;42.502;26.526;2023-02-21T13:37:28;99311.06;;;23.55;30.11
20019;BME280;10170;42.502;26.526;2023-02-21T13:39:58;99312.75;;;23.00;30.97
20019;BME280;10170;42.502;26.526;2023-02-21T13:42:35;99305.47;;;23.33;30.35
20019;BME280;10170;42.502;26.526;2023-02-21T13:45:18;99304.53;;;23.06;31.06
20019;BME280;10170;42.502;26.526;2023-02-21T13:53:32;99299.72;;;22.65;31.24
20019;BME280;10170;42.502;26.526;2023-02-21T13:58:49;99286.75;;;22.20;32.10
20019;BME280;10170;42.502;26.526;2023-02-21T14:03:51;99305.19;;;22.18;31.14
20019;BME280;10170;42.502;26.526;2023-02-21T14:06:29;99293.84;;;21.92;32.09
20019;BME280;10170;42.502;26.526;2023-02-21T14:09:02;99290.91;;;21.89;31.86
20019;BME280;10170;42.502;26.526;2023-02-21T14:11:42;99294.28;;;21.81;32.38
20019;BME280;10170;42.502;26.526;2023-02-21T14:14:31;99294.50;;;21.56;32.37
20019;BME280;10170;42.502;26.526;2023-02-21T14:17:05;99308.25;;;21.88;32.25
20019;BME280;10170;42.502;26.526;2023-02-21T14:19:40;99303.66;;;21.60;32.46
20019;BME280;10170;42.502;26.526;2023-02-21T14:24:43;99309.25;;;21.68;32.45
20019;BME280;10170;42.502;26.526;2023-02-21T14:32:50;99303.16;;;21.29;32.99
20019;BME280;10170;42.502;26.526;2023-02-21T14:37:56;99311.03;;;21.21;32.55
20019;BME280;10170;42.502;26.526;2023-02-21T14:43:21;99318.91;;;21.17;32.93
20019;BME280;10170;42.502;26.526;2023-02-21T15:08:23;99305.22;;;21.04;33.72
20019;BME280;10170;42.502;26.526;2023-02-21T15:10:58;99306.94;;;20.89;34.33
20019;BME280;10170;42.502;26.526;2023-02-21T15:13:32;99308.84;;;20.84;34.15
20019;BME280;10170;42.502;26.526;2023-02-21T15:16:02;99303.91;;;20.96;33.47
20019;BME280;10170;42.502;26.526;2023-02-21T15:18:35;99307.63;;;20.66;33.79
20019;BME280;10170;42.502;26.526;2023-02-21T15:23:39;99316.69;;;20.37;34.06
20019;BME280;10170;42.502;26.526;2023-02-21T15:26:21;99317.56;;;20.22;34.06
20019;BME280;10170;42.502;26.526;2023-02-21T15:29:08;99322.69;;;20.29;34.03
20019;BME280;10170;42.502;26.526;2023-02-21T15:31:43;99322.16;;;20.22;34.65
20019;BME280;10170;42.502;26.526;2023-02-21T15:36:46;99325.97;;;20.11;34.09
20019;BME280;10170;42.502;26.526;2023-02-21T15:39:32;99325.22;;;19.95;35.02
20019;BME280;10170;42.502;26.526;2023-02-21T15:42:04;99328.44;;;19.92;34.53
20019;BME280;10170;42.502;26.526;2023-02-21T15:44:39;99336.53;;;20.02;34.74
20019;BME280;10170;42.502;26.526;2023-02-21T15:47:27;99331.72;;;19.84;34.90
20019;BME280;10170;42.502;26.526;2023-02-21T15:52:50;99343.03;;;19.91;34.50
20019;BME280;10170;42.502;26.526;2023-02-21T16:00:36;99334.72;;;19.52;34.46
20019;BME280;10170;42.502;26.526;2023-02-21T16:03:27;99347.41;;;19.32;35.08
20019;BME280;10170;42.502;26.526;2023-02-21T16:08:54;99359.22;;;19.11;34.46